Time;durP1;ratioP1;P1;durP2;ratioP2;P2;SDS_P1;SDS_P2;PMS_P1;PMS_P2;Temp;Humidity;BMP_temperature;BMP_pressure;BME280_temperature;BME280_humidity;BME280_pressure;Samples;Min_cycle;Max_cycle;Signal;HPM_P1;HPM_P2
2023/09/23 00:01:34;;;;;;;25.60;13.25;;;;;;;22.74;46.13;101254.53;5035443;28;20449;-41
2023/09/23 00:04:01;;;;;;;18.02;13.70;;;;;;;22.64;45.97;101258.94;5035573;28;20025;-42
2023/09/23 00:06:27;;;;;;;18.70;13.68;;;;;;;22.66;45.51;101258.69;5035308;28;20056;-42
2023/09/23 00:08:55;;;;;;;22.90;14.98;;;;;;;22.27;46.01;101256.56;5035389;28;20026;-42
2023/09/23 00:11:22;;;;;;;18.67;13.77;;;;;;;22.28;46.40;101252.72;5035584;28;20120;-42
2023/09/23 00:13:48;;;;;;;17.85;14.13;;;;;;;22.27;46.22;101259.28;5035175;28;20028;-42
2023/09/23 00:16:15;;;;;;;21.80;14.23;;;;;;;22.22;46.63;101262.00;5035196;28;20075;-42
2023/09/23 00:18:43;;;;;;;17.08;13.57;;;;;;;22.17;46.53;101259.28;5035143;28;20374;-42
2023/09/23 00:21:11;;;;;;;20.38;14.70;;;;;;;22.19;46.76;101261.72;5035075;28;20029;-42
2023/09/23 00:23:38;;;;;;;23.25;14.93;;;;;;;21.82;48.35;101260.03;5034994;28;20497;-42
2023/09/23 00:26:06;;;;;;;20.30;14.65;;;;;;;21.64;48.40;101264.09;5035048;28;20540;-43
2023/09/23 00:28:33;;;;;;;21.80;15.65;;;;;;;21.54;49.20;101267.63;5035021;28;20036;-42
2023/09/23 00:31:05;;;;;;;18.40;13.15;;;;;;;21.52;49.96;101266.25;5034722;28;20036;-45
2023/09/23 00:33:32;;;;;;;22.17;15.27;;;;;;;21.41;49.73;101270.84;5034859;28;20057;-41
2023/09/23 00:35:59;;;;;;;20.90;15.15;;;;;;;21.51;49.80;101265.44;5034928;28;20087;-45
2023/09/23 00:38:27;;;;;;;22.17;16.23;;;;;;;21.14;51.05;101264.72;5034798;28;20063;-42
2023/09/23 00:40:55;;;;;;;20.20;14.82;;;;;;;21.15;50.82;101271.81;5034586;28;20033;-45
2023/09/23 00:43:23;;;;;;;24.70;16.45;;;;;;;20.63;52.11;101265.31;5034659;28;20032;-42
2023/09/23 00:45:54;;;;;;;22.42;16.35;;;;;;;20.65;52.31;101274.00;5034822;28;20120;-42
2023/09/23 00:48:21;;;;;;;21.27;16.33;;;;;;;20.59;53.02;101274.25;5035126;28;20034;-45
2023/09/23 00:50:50;;;;;;;27.98;17.23;;;;;;;20.13;54.90;101274.69;5034673;28;20079;-42
2023/09/23 00:53:17;;;;;;;23.75;16.90;;;;;;;20.14;55.33;101272.78;5034492;28;20065;-42
2023/09/23 00:55:52;;;;;;;22.13;15.65;;;;;;;20.05;55.29;101275.19;5033078;28;20076;-43
2023/09/23 00:58:21;;;;;;;24.08;16.65;;;;;;;20.07;55.05;101278.44;5034898;28;20029;-43
2023/09/23 01:00:51;;;;;;;21.27;17.35;;;;;;;19.80;55.72;101280.38;5034361;28;20036;-43
2023/09/23 01:03:21;;;;;;;24.48;17.10;;;;;;;19.90;55.65;101285.91;5034442;28;20029;-44
2023/09/23 01:05:59;;;;;;;24.00;17.48;;;;;;;19.65;57.52;101281.03;5034412;28;20029;-43
2023/09/23 01:08:25;;;;;;;21.20;15.63;;;;;;;19.73;58.02;101289.53;5034332;28;20528;-43
2023/09/23 01:10:52;;;;;;;22.00;16.60;;;;;;;19.69;58.24;101284.88;5034297;28;20018;-43
2023/09/23 01:13:22;;;;;;;21.83;16.67;;;;;;;19.52;58.89;101287.66;5034166;28;20036;-44
2023/09/23 01:15:49;;;;;;;22.98;17.88;;;;;;;19.32;59.21;101299.09;5034290;28;20033;-44
2023/09/23 01:18:17;;;;;;;28.00;17.50;;;;;;;19.21;59.20;101289.16;5032970;28;20033;-43
2023/09/23 01:20:48;;;;;;;25.25;16.60;;;;;;;19.20;59.45;101282.94;5034094;28;20028;-44
2023/09/23 01:23:15;;;;;;;26.45;16.35;;;;;;;19.17;59.92;101286.16;5034817;28;20029;-44
2023/09/23 01:25:41;;;;;;;29.48;17.75;;;;;;;19.11;59.64;101289.88;5034012;28;20367;-43
2023/09/23 01:28:14;;;;;;;25.65;17.42;;;;;;;18.98;59.52;101292.94;5032885;28;20029;-42
2023/09/23 01:30:46;;;;;;;27.13;17.17;;;;;;;18.89;60.51;101299.91;5034399;28;20030;-42
2023/09/23 01:33:15;;;;;;;21.38;16.65;;;;;;;18.70;60.21;101300.16;5034000;28;20040;-45
2023/09/23 01:35:42;;;;;;;22.30;16.75;;;;;;;18.65;60.38;101300.03;5034143;28;20571;-44
2023/09/23 01:38:08;;;;;;;22.02;16.90;;;;;;;18.70;60.43;101300.16;5033855;28;20029;-42
2023/09/23 01:40:36;;;;;;;25.23;17.08;;;;;;;18.83;60.06;101298.19;5034076;28;20033;-44
2023/09/23 01:43:03;;;;;;;21.13;16.33;;;;;;;18.83;60.39;101303.59;5033760;28;20034;-43
2023/09/23 01:45:30;;;;;;;27.27;18.42;;;;;;;18.60;60.97;101308.13;5033603;28;20138;-44
2023/09/23 01:47:56;;;;;;;24.35;17.17;;;;;;;18.64;60.88;101309.25;5033637;28;20026;-42
2023/09/23 01:50:24;;;;;;;18.27;16.35;;;;;;;18.59;60.86;101309.16;5033628;28;20486;-43
2023/09/23 01:52:51;;;;;;;26.55;16.75;;;;;;;18.52;60.80;101308.53;5033437;28;20025;-42
2023/09/23 01:55:17;;;;;;;24.73;17.25;;;;;;;18.43;61.69;101308.13;5033467;28;20478;-43
2023/09/23 01:57:49;;;;;;;25.30;17.75;;;;;;;18.47;61.96;101297.59;5033326;28;20021;-44
2023/09/23 02:00:24;;;;;;;22.15;16.58;;;;;;;18.48;62.11;101296.53;5033631;28;20029;-43
2023/09/23 02:02:57;;;;;;;29.80;16.25;;;;;;;18.30;62.29;101294.91;5033143;28;20033;-42
2023/09/23 02:05:27;;;;;;;20.73;16.88;;;;;;;18.30;62.84;101296.78;5033003;28;20493;-42
2023/09/23 02:07:54;;;;;;;22.08;18.17;;;;;;;18.14;63.61;101285.69;5032982;28;20114;-42
2023/09/23 02:10:23;;;;;;;28.17;17.45;;;;;;;18.15;63.86;101284.63;5033156;28;20128;-41
2023/09/23 02:12:49;;;;;;;23.90;16.52;;;;;;;18.08;64.61;101286.69;5033425;28;20557;-42
2023/09/23 02:15:16;;;;;;;21.20;16.77;;;;;;;17.97;64.76;101298.41;5033460;28;20565;-44
2023/09/23 02:17:43;;;;;;;30.92;16.83;;;;;;;17.85;65.64;101294.94;5033021;28;20030;-43
2023/09/23 02:20:22;;;;;;;24.80;16.55;;;;;;;17.66;66.11;101297.81;5033032;28;20117;-43
2023/09/23 02:22:53;;;;;;;21.08;16.13;;;;;;;17.75;66.12;101305.56;5033010;28;20113;-43
2023/09/23 02:25:20;;;;;;;22.27;16.80;;;;;;;17.57;66.82;101311.97;5033081;28;20038;-44
2023/09/23 02:27:46;;;;;;;26.95;17.27;;;;;;;17.46;67.80;101318.25;5033678;28;20024;-44
2023/09/23 02:30:14;;;;;;;25.48;18.17;;;;;;;17.54;67.82;101320.56;5032814;28;20053;-44
2023/09/23 02:32:43;;;;;;;26.10;17.52;;;;;;;17.47;68.08;101315.28;5033550;28;20087;-43
2023/09/23 02:35:13;;;;;;;29.35;17.60;;;;;;;17.45;67.85;101301.19;5032600;28;20128;-44
2023/09/23 02:37:41;;;;;;;26.17;17.40;;;;;;;17.37;68.21;101305.06;5032753;28;20121;-43
2023/09/23 02:40:13;;;;;;;23.58;17.73;;;;;;;17.39;68.49;101304.88;5033067;28;20390;-42
2023/09/23 02:42:46;;;;;;;26.05;16.40;;;;;;;17.22;69.09;101309.38;5032721;28;20035;-43
2023/09/23 02:45:13;;;;;;;26.52;18.00;;;;;;;17.18;69.07;101311.72;5032827;28;20308;-42
2023/09/23 02:47:43;;;;;;;22.55;17.80;;;;;;;17.15;68.95;101321.13;5032998;28;20056;-44
2023/09/23 02:50:10;;;;;;;28.17;17.55;;;;;;;17.05;69.57;101312.81;5033009;28;20083;-43
2023/09/23 02:52:41;;;;;;;28.27;18.30;;;;;;;17.08;69.58;101309.63;5032795;28;20036;-42
2023/09/23 02:55:19;;;;;;;24.35;17.80;;;;;;;17.08;69.31;101315.03;5033328;28;20049;-43
2023/09/23 02:57:50;;;;;;;30.85;19.30;;;;;;;16.98;69.93;101308.56;5032824;28;20033;-42
2023/09/23 03:00:20;;;;;;;22.88;18.02;;;;;;;17.05;69.80;101298.47;5032692;28;20509;-40
2023/09/23 03:02:52;;;;;;;25.35;17.50;;;;;;;17.17;69.53;101306.56;5032447;28;20038;-41
2023/09/23 03:05:25;;;;;;;25.38;18.10;;;;;;;16.98;70.32;101311.28;5032913;28;20041;-41
2023/09/23 03:07:52;;;;;;;23.55;17.50;;;;;;;16.93;70.81;101313.88;5032494;28;20028;-42
2023/09/23 03:10:31;;;;;;;25.02;18.33;;;;;;;16.96;70.64;101308.00;5032558;28;20048;-41
2023/09/23 03:13:07;;;;;;;25.85;18.02;;;;;;;17.01;70.53;101306.22;5032195;28;20033;-43
2023/09/23 03:15:41;;;;;;;24.17;16.27;;;;;;;16.87;70.51;101316.44;5032454;28;20470;-43
2023/09/23 03:18:08;;;;;;;23.25;17.73;;;;;;;16.87;70.80;101315.63;5034545;28;20116;-43
2023/09/23 03:20:36;;;;;;;24.42;17.45;;;;;;;16.87;70.71;101318.34;5036387;28;20513;-46
2023/09/23 03:23:03;;;;;;;23.00;17.17;;;;;;;16.78;71.02;101327.88;5036354;28;20037;-43
2023/09/23 03:25:30;;;;;;;23.17;18.00;;;;;;;16.87;70.54;101326.44;5036179;28;20030;-43
2023/09/23 03:27:57;;;;;;;23.58;17.10;;;;;;;16.79;70.62;101337.63;5036041;28;20032;-43
2023/09/23 03:30:24;;;;;;;28.92;17.95;;;;;;;16.95;70.75;101328.00;5036078;28;20037;-41
2023/09/23 03:32:50;;;;;;;27.23;17.85;;;;;;;16.89;70.34;101330.56;5036488;28;20032;-42
2023/09/23 03:35:18;;;;;;;20.17;15.68;;;;;;;16.85;70.45;101328.56;5036071;28;20078;-43
2023/09/23 03:37:51;;;;;;;22.60;16.52;;;;;;;16.72;71.04;101329.66;5035820;28;20585;-42
2023/09/23 03:40:24;;;;;;;19.48;16.10;;;;;;;16.84;70.73;101333.16;5036317;28;20446;-41
2023/09/23 03:42:51;;;;;;;27.98;18.10;;;;;;;16.88;70.49;101326.25;5036241;28;20037;-41
2023/09/23 03:45:17;;;;;;;30.42;17.85;;;;;;;17.00;70.53;101331.63;5035787;28;20029;-41
2023/09/23 03:47:47;;;;;;;25.23;17.63;;;;;;;16.76;71.27;101333.50;5035768;28;20033;-41
2023/09/23 03:50:15;;;;;;;24.67;17.55;;;;;;;16.83;71.62;101336.13;5036022;28;20033;-42
2023/09/23 03:52:42;;;;;;;26.55;17.20;;;;;;;16.75;71.98;101348.06;5035960;28;20052;-41
2023/09/23 03:55:11;;;;;;;27.70;18.75;;;;;;;16.66;72.37;101343.22;5035801;28;20048;-42
2023/09/23 03:57:38;;;;;;;27.48;18.15;;;;;;;16.84;72.41;101343.16;5035524;28;20021;-42
2023/09/23 04:00:16;;;;;;;25.42;16.70;;;;;;;16.59;73.05;101346.84;5035945;28;20029;-42
2023/09/23 04:02:47;;;;;;;30.88;18.45;;;;;;;16.76;72.91;101346.19;5035565;28;20432;-42
2023/09/23 04:05:19;;;;;;;24.85;17.23;;;;;;;16.48;73.46;101346.84;5035989;28;20363;-43
2023/09/23 04:07:49;;;;;;;25.15;16.70;;;;;;;16.49;73.33;101362.84;5034413;28;20022;-42
2023/09/23 04:10:23;;;;;;;25.95;17.17;;;;;;;16.37;73.78;101375.47;5035731;28;20029;-42
2023/09/23 04:12:55;;;;;;;28.52;18.17;;;;;;;16.29;74.25;101373.13;5018332;28;20112;-42
2023/09/23 04:15:24;;;;;;;25.70;16.52;;;;;;;16.29;74.72;101373.13;5035319;28;20021;-42
2023/09/23 04:17:50;;;;;;;20.23;17.02;;;;;;;16.29;74.54;101371.25;5035264;28;20121;-40
2023/09/23 04:20:17;;;;;;;22.85;16.92;;;;;;;16.20;74.95;101369.09;5035349;28;20017;-41
2023/09/23 04:22:46;;;;;;;26.77;18.02;;;;;;;16.18;75.29;101382.03;5035346;28;20025;-45
2023/09/23 04:25:15;;;;;;;23.08;17.90;;;;;;;16.29;74.71;101375.84;5035061;28;20025;-43
2023/09/23 04:27:42;;;;;;;23.38;17.25;;;;;;;16.27;74.79;101376.06;5035003;28;20029;-41
2023/09/23 04:30:09;;;;;;;23.15;17.83;;;;;;;16.24;75.58;101376.50;5034414;28;20032;-41
2023/09/23 04:32:39;;;;;;;24.20;17.55;;;;;;;16.06;76.02;101376.59;5035009;28;20091;-42
2023/09/23 04:35:07;;;;;;;22.25;15.82;;;;;;;16.01;75.99;101373.75;5034890;28;20067;-43
2023/09/23 04:37:37;;;;;;;24.65;17.90;;;;;;;16.03;75.97;101380.56;5034720;28;20053;-41
2023/09/23 04:40:10;;;;;;;24.98;15.93;;;;;;;16.06;76.26;101377.41;5034918;28;20033;-40
2023/09/23 04:42:48;;;;;;;20.45;15.90;;;;;;;15.95;76.27;101375.47;5035517;28;20030;-41
2023/09/23 04:45:15;;;;;;;21.02;16.63;;;;;;;15.99;76.42;101370.44;5035000;28;20097;-42
2023/09/23 04:47:43;;;;;;;18.75;16.05;;;;;;;15.87;76.66;101374.97;5034768;28;20418;-42
2023/09/23 04:50:12;;;;;;;23.65;17.02;;;;;;;15.94;76.63;101381.94;5035050;28;20022;-42
2023/09/23 04:52:38;;;;;;;21.58;17.17;;;;;;;16.02;76.40;101388.88;5034605;28;20025;-43
2023/09/23 04:55:06;;;;;;;24.58;17.10;;;;;;;15.94;76.66;101381.94;5034331;28;20040;-42
2023/09/23 04:57:33;;;;;;;22.23;16.23;;;;;;;15.80;77.15;101380.44;5034721;28;20034;-43
2023/09/23 05:00:00;;;;;;;24.02;16.25;;;;;;;15.74;77.29;101387.59;5035377;28;20032;-41
2023/09/23 05:02:29;;;;;;;29.45;17.58;;;;;;;15.72;77.04;101380.78;5034723;28;20128;-42
2023/09/23 05:04:55;;;;;;;20.15;16.10;;;;;;;15.70;77.27;101390.94;5034511;28;20488;-42
2023/09/23 05:07:25;;;;;;;23.23;16.70;;;;;;;15.61;77.50;101387.72;5034283;28;20474;-43
2023/09/23 05:09:51;;;;;;;22.45;16.77;;;;;;;15.66;77.39;101376.28;5034283;28;20389;-43
2023/09/23 05:12:19;;;;;;;25.52;16.27;;;;;;;15.68;77.76;101376.88;5034286;28;20029;-42
2023/09/23 05:14:45;;;;;;;30.00;17.73;;;;;;;15.74;77.70;101371.38;5034282;28;20029;-42
2023/09/23 05:17:15;;;;;;;25.17;17.42;;;;;;;15.71;78.34;101377.25;5034112;28;20037;-42
2023/09/23 05:19:46;;;;;;;23.25;17.30;;;;;;;15.67;78.62;101375.22;5034260;28;20076;-43
2023/09/23 05:22:12;;;;;;;24.98;18.17;;;;;;;15.82;78.24;101376.50;5034116;28;20115;-41
2023/09/23 05:24:41;;;;;;;24.77;16.70;;;;;;;15.77;78.81;101379.03;5034119;28;20025;-41
2023/09/23 05:27:07;;;;;;;23.77;16.98;;;;;;;15.52;79.52;101380.97;5033918;28;20433;-40
2023/09/23 05:29:33;;;;;;;22.23;16.20;;;;;;;15.45;79.62;101375.66;5033876;28;20030;-40
2023/09/23 05:32:00;;;;;;;23.55;15.70;;;;;;;15.30;79.93;101383.28;5033842;28;20030;-41
2023/09/23 05:34:27;;;;;;;22.42;16.45;;;;;;;15.25;80.20;101383.13;5033772;28;20032;-41
2023/09/23 05:36:53;;;;;;;19.00;15.07;;;;;;;15.19;80.10;101378.63;5033820;28;20492;-42
2023/09/23 05:39:19;;;;;;;20.40;15.68;;;;;;;15.17;80.20;101375.34;5033647;28;20402;-42
2023/09/23 05:41:53;;;;;;;20.83;15.88;;;;;;;15.14;79.95;101373.91;5032736;28;20080;-41
2023/09/23 05:44:19;;;;;;;21.90;16.40;;;;;;;15.14;80.32;101382.00;5034258;28;20044;-40
2023/09/23 05:46:48;;;;;;;24.58;16.25;;;;;;;15.14;79.56;101383.88;5033713;28;20467;-41
2023/09/23 05:49:14;;;;;;;22.40;16.58;;;;;;;15.23;79.47;101374.47;5033656;28;20070;-41
2023/09/23 05:51:40;;;;;;;28.73;17.75;;;;;;;15.21;79.96;101376.53;5033656;28;20029;-42
2023/09/23 05:54:10;;;;;;;23.55;16.65;;;;;;;15.09;80.48;101378.31;5033611;28;20032;-41
2023/09/23 05:56:36;;;;;;;25.08;15.68;;;;;;;15.02;80.46;101383.78;5033584;28;20128;-41
2023/09/23 05:59:05;;;;;;;20.08;15.20;;;;;;;15.00;80.30;101384.00;5016121;28;20098;-42
2023/09/23 06:01:33;;;;;;;20.67;16.00;;;;;;;14.94;80.24;101387.59;5033299;28;20032;-42
2023/09/23 06:04:00;;;;;;;18.75;14.70;;;;;;;14.88;80.24;101380.41;5032449;28;20037;-42
2023/09/23 06:06:26;;;;;;;16.77;15.02;;;;;;;14.85;80.26;101390.78;5033353;28;20025;-42
2023/09/23 06:08:52;;;;;;;18.83;14.60;;;;;;;14.78;80.03;101382.75;5048656;28;20029;-41
2023/09/23 06:11:18;;;;;;;23.27;14.80;;;;;;;14.81;80.01;101378.78;5033307;28;20052;-41
2023/09/23 06:13:45;;;;;;;24.55;16.63;;;;;;;14.78;80.62;101383.59;5033176;28;20021;-42
2023/09/23 06:16:11;;;;;;;21.95;15.85;;;;;;;14.83;80.37;101384.81;5033089;28;20031;-42
2023/09/23 06:18:37;;;;;;;16.90;14.80;;;;;;;14.74;80.36;101389.63;5033511;28;20060;-42
2023/09/23 06:21:06;;;;;;;20.98;15.32;;;;;;;14.68;80.85;101394.03;5033103;28;20033;-43
2023/09/23 06:23:32;;;;;;;20.83;15.32;;;;;;;14.66;80.53;101395.31;5033264;28;20171;-43
2023/09/23 06:26:02;;;;;;;22.20;16.27;;;;;;;14.74;80.82;101381.53;5015519;28;20029;-41
2023/09/23 06:28:33;;;;;;;26.95;17.33;;;;;;;14.65;81.90;101383.69;5033076;28;20053;-43
2023/09/23 06:30:59;;;;;;;38.83;17.13;;;;;;;14.66;82.08;101373.75;5033346;28;20478;-44
2023/09/23 06:33:26;;;;;;;26.75;16.65;;;;;;;14.79;82.27;101374.44;5033289;28;20140;-42
2023/09/23 06:35:52;;;;;;;28.83;17.05;;;;;;;14.84;82.67;101373.78;5033105;28;20044;-42
2023/09/23 06:38:18;;;;;;;23.30;16.40;;;;;;;14.88;82.50;101372.31;5033641;28;20068;-44
2023/09/23 06:40:44;;;;;;;22.05;15.80;;;;;;;14.67;82.93;101383.47;5033268;28;20033;-43
2023/09/23 06:43:12;;;;;;;22.38;15.95;;;;;;;14.65;82.99;101372.09;5032856;28;20067;-43
2023/09/23 06:45:39;;;;;;;19.67;14.32;;;;;;;14.62;82.83;101370.66;5032607;28;20037;-41
2023/09/23 06:48:05;;;;;;;24.70;16.10;;;;;;;14.50;83.31;101385.91;5032775;28;20025;-43
2023/09/23 06:50:32;;;;;;;21.10;15.93;;;;;;;14.43;82.99;101380.50;5032604;28;20021;-42
2023/09/23 06:52:58;;;;;;;25.08;15.48;;;;;;;14.48;83.11;101367.22;5034920;28;20528;-41
2023/09/23 06:55:24;;;;;;;28.27;16.48;;;;;;;14.49;83.49;101368.91;5036843;28;20028;-41
2023/09/23 06:57:50;;;;;;;24.65;16.73;;;;;;;14.49;83.66;101363.53;5036794;28;20405;-41
2023/09/23 07:00:17;;;;;;;24.25;16.70;;;;;;;14.61;83.41;101373.59;5036768;28;20021;-41
2023/09/23 07:02:43;;;;;;;20.52;16.85;;;;;;;14.69;84.35;101367.91;5036963;28;20115;-41
2023/09/23 07:05:10;;;;;;;22.83;16.70;;;;;;;14.66;84.39;101368.38;5036616;28;20033;-41
2023/09/23 07:07:36;;;;;;;28.23;17.85;;;;;;;14.60;84.87;101375.44;5036666;28;20028;-41
2023/09/23 07:10:04;;;;;;;25.52;17.60;;;;;;;14.55;85.10;101374.44;5036610;28;20049;-41
2023/09/23 07:12:30;;;;;;;30.95;17.33;;;;;;;14.43;85.86;101375.09;5036456;28;20084;-41
2023/09/23 07:14:57;;;;;;;26.73;18.08;;;;;;;14.37;85.96;101381.38;5036477;28;20026;-42
2023/09/23 07:17:23;;;;;;;22.60;15.75;;;;;;;14.34;85.99;101381.81;5036391;28;20060;-41
2023/09/23 07:19:49;;;;;;;23.90;16.45;;;;;;;14.34;86.16;101386.38;5036353;28;20037;-41
2023/09/23 07:22:15;;;;;;;21.08;15.60;;;;;;;14.27;85.74;101386.44;5036725;28;20028;-41
2023/09/23 07:24:42;;;;;;;30.65;18.35;;;;;;;14.27;86.26;101386.44;5036512;28;20037;-43
2023/09/23 07:27:08;;;;;;;20.83;16.42;;;;;;;14.31;86.46;101387.63;5018516;28;20474;-43
2023/09/23 07:29:35;;;;;;;24.23;17.63;;;;;;;14.33;86.37;101382.88;5036322;28;20025;-42
2023/09/23 07:32:01;;;;;;;26.58;16.60;;;;;;;14.43;86.20;101380.50;5036162;28;20370;-42
2023/09/23 07:34:27;;;;;;;26.85;18.20;;;;;;;14.28;86.70;101388.09;5036073;28;20021;-42
2023/09/23 07:36:53;;;;;;;22.95;16.95;;;;;;;14.30;86.11;101391.38;5034692;28;20501;-42
2023/09/23 07:39:20;;;;;;;24.73;17.58;;;;;;;14.24;87.12;101386.84;5018282;28;20037;-41
2023/09/23 07:41:46;;;;;;;24.83;17.65;;;;;;;14.25;87.06;101383.13;5036330;28;20496;-45
2023/09/23 07:44:12;;;;;;;26.38;17.88;;;;;;;14.22;87.31;101384.38;5035916;28;20025;-42
2023/09/23 07:46:39;;;;;;;25.63;17.90;;;;;;;14.29;87.16;101373.56;5035830;28;20026;-42
2023/09/23 07:49:08;;;;;;;26.70;18.23;;;;;;;14.22;87.69;101368.25;5036542;28;20072;-41
2023/09/23 07:51:35;;;;;;;25.00;16.90;;;;;;;14.32;87.18;101373.13;5035887;28;20052;-41
2023/09/23 07:54:02;;;;;;;28.83;18.13;;;;;;;14.35;87.30;101377.25;5035723;28;20029;-42
2023/09/23 07:56:28;;;;;;;24.13;18.40;;;;;;;14.30;87.28;101377.91;5035936;28;20025;-42
2023/09/23 07:58:54;;;;;;;27.83;16.60;;;;;;;14.31;86.94;101376.03;5035649;28;20025;-42
2023/09/23 08:01:20;;;;;;;27.83;17.85;;;;;;;14.35;87.10;101364.63;5035481;28;20094;-42
2023/09/23 08:03:47;;;;;;;27.38;16.55;;;;;;;14.30;87.43;101369.81;5034885;28;20458;-42
2023/09/23 08:06:13;;;;;;;27.45;17.75;;;;;;;14.31;87.38;101370.66;5035457;28;20029;-40
2023/09/23 08:08:39;;;;;;;23.40;17.00;;;;;;;14.28;87.52;101385.38;5035521;28;20056;-41
2023/09/23 08:11:05;;;;;;;22.48;17.70;;;;;;;14.27;87.14;101381.88;5035423;28;20017;-42
2023/09/23 08:13:32;;;;;;;25.88;16.67;;;;;;;14.22;87.52;101386.25;5035454;28;20060;-42
2023/09/23 08:15:58;;;;;;;18.73;16.27;;;;;;;14.23;87.08;101374.44;5035340;28;20025;-42
2023/09/23 08:18:25;;;;;;;25.38;17.55;;;;;;;14.37;86.29;101378.69;5035388;28;20049;-41
2023/09/23 08:20:58;;;;;;;32.60;17.95;;;;;;;14.17;86.94;101383.38;5035186;28;20052;-42
2023/09/23 08:23:25;;;;;;;31.67;18.77;;;;;;;14.23;86.84;101390.59;5035115;28;20030;-41
2023/09/23 08:25:52;;;;;;;22.90;16.73;;;;;;;14.22;86.63;101381.69;5035112;28;20026;-41
2023/09/23 08:28:19;;;;;;;26.50;17.38;;;;;;;14.11;86.94;101381.56;5035187;28;20037;-41
2023/09/23 08:30:46;;;;;;;23.38;16.80;;;;;;;14.12;86.79;101383.22;5035043;28;20033;-42
2023/09/23 08:33:13;;;;;;;27.50;17.08;;;;;;;14.07;86.80;101383.03;5034936;28;20491;-42
2023/09/23 08:35:41;;;;;;;24.25;18.00;;;;;;;13.98;87.45;101383.25;5034879;28;20025;-42
2023/09/23 08:38:08;;;;;;;24.85;17.55;;;;;;;14.06;86.92;101390.28;5034804;28;20164;-41
2023/09/23 08:40:36;;;;;;;19.63;15.88;;;;;;;14.10;86.90;101393.34;5034666;28;20032;-41
2023/09/23 08:43:05;;;;;;;21.77;16.35;;;;;;;14.02;86.94;101390.91;5034337;28;20387;-41
2023/09/23 08:45:32;;;;;;;23.70;16.05;;;;;;;14.02;86.84;101399.81;5034723;28;20026;-41
2023/09/23 08:47:59;;;;;;;27.95;16.13;;;;;;;14.04;86.19;101394.22;5034841;28;20017;-41
2023/09/23 08:50:25;;;;;;;24.30;15.98;;;;;;;14.00;86.27;101397.34;5034892;28;20037;-40
2023/09/23 08:52:52;;;;;;;22.33;16.20;;;;;;;13.94;86.46;101400.91;5034629;28;20462;-41
2023/09/23 08:55:19;;;;;;;21.50;16.23;;;;;;;13.90;86.58;101406.94;5034788;28;20029;-41
2023/09/23 08:57:45;;;;;;;22.40;16.02;;;;;;;13.98;85.96;101393.22;5034460;28;20376;-40
2023/09/23 09:00:13;;;;;;;24.20;16.70;;;;;;;13.97;86.39;101395.06;5034497;28;20096;-41
2023/09/23 09:02:39;;;;;;;25.55;17.38;;;;;;;13.98;86.35;101398.59;5034208;28;20079;-40
2023/09/23 09:05:06;;;;;;;27.42;17.38;;;;;;;13.98;86.95;101398.59;5034841;28;20029;-41
2023/09/23 09:07:37;;;;;;;22.05;16.60;;;;;;;13.87;87.30;101408.16;5034354;28;20026;-41
2023/09/23 09:10:05;;;;;;;29.80;17.27;;;;;;;13.91;86.88;101405.88;5034410;28;20025;-41
2023/09/23 09:12:32;;;;;;;23.40;16.65;;;;;;;13.86;87.41;101409.19;5034341;28;20124;-40
2023/09/23 09:14:59;;;;;;;30.60;17.65;;;;;;;14.05;86.70;101407.47;5034191;28;20074;-40
2023/09/23 09:17:25;;;;;;;25.58;17.10;;;;;;;13.93;86.83;101407.31;5034323;28;20059;-40
2023/09/23 09:19:52;;;;;;;21.58;16.45;;;;;;;13.94;86.81;101408.16;5034160;28;20032;-40
2023/09/23 09:22:21;;;;;;;21.90;17.38;;;;;;;13.94;86.70;101406.28;5034577;28;20037;-41
2023/09/23 09:24:48;;;;;;;20.75;16.33;;;;;;;13.90;87.17;101410.44;5033900;28;20034;-41
2023/09/23 09:27:14;;;;;;;24.38;17.33;;;;;;;13.91;87.05;101413.94;5034438;28;20021;-41
2023/09/23 09:29:44;;;;;;;25.80;17.40;;;;;;;13.90;87.54;101404.22;5033746;28;20033;-40
2023/09/23 09:32:11;;;;;;;21.73;15.82;;;;;;;13.99;86.71;101402.94;5033869;28;20033;-40
2023/09/23 09:34:45;;;;;;;23.50;17.70;;;;;;;14.07;86.46;101393.78;5033743;28;20378;-40
2023/09/23 09:37:15;;;;;;;22.05;16.00;;;;;;;13.97;87.51;101395.06;5033466;28;20075;-42
2023/09/23 09:40:11;;;;;;;22.02;16.33;;;;;;;13.98;87.57;101398.59;5033872;28;20021;-41
2023/09/23 09:42:42;;;;;;;23.58;17.83;;;;;;;14.00;87.93;101397.34;5033864;28;20033;-41
2023/09/23 09:45:10;;;;;;;26.40;17.30;;;;;;;14.12;88.00;101402.06;5033676;28;20033;-41
2023/09/23 09:47:39;;;;;;;24.20;18.52;;;;;;;14.30;87.37;101396.75;5033501;28;20025;-42
2023/09/23 09:50:07;;;;;;;23.75;16.77;;;;;;;14.32;87.25;101399.22;5033563;28;20030;-40
2023/09/23 09:52:38;;;;;;;28.48;17.50;;;;;;;14.26;87.96;101400.91;5033396;28;20470;-41
2023/09/23 09:55:07;;;;;;;21.85;16.02;;;;;;;14.33;87.88;101385.56;5033824;28;20112;-40
2023/09/23 09:57:33;;;;;;;24.38;17.98;;;;;;;14.46;87.12;101390.03;5033362;28;20098;-41
2023/09/23 10:00:00;;;;;;;22.40;16.33;;;;;;;14.55;86.97;101390.59;5033713;28;20115;-41
2023/09/23 10:02:27;;;;;;;23.10;16.58;;;;;;;14.49;86.83;101387.75;5033274;28;20034;-41
2023/09/23 10:04:55;;;;;;;25.77;17.38;;;;;;;14.56;86.92;101381.50;5033474;28;20025;-41
2023/09/23 10:07:24;;;;;;;22.15;15.60;;;;;;;14.54;87.07;101387.09;5033290;28;20101;-41
2023/09/23 10:09:54;;;;;;;26.90;16.58;;;;;;;14.56;87.33;101389.59;5033181;28;20033;-41
2023/09/23 10:12:31;;;;;;;25.58;17.02;;;;;;;14.59;86.99;101383.75;5033317;28;20037;-41
2023/09/23 10:14:58;;;;;;;26.60;17.30;;;;;;;14.68;86.63;101377.88;5033073;28;20032;-41
2023/09/23 10:17:31;;;;;;;23.60;16.60;;;;;;;14.74;86.28;101381.53;5033121;28;20025;-41
2023/09/23 10:19:58;;;;;;;22.55;17.20;;;;;;;14.85;85.75;101370.06;5033017;28;20381;-41
2023/09/23 10:22:28;;;;;;;24.58;17.08;;;;;;;14.81;85.69;101365.31;5032937;28;20026;-41
2023/09/23 10:25:04;;;;;;;26.17;16.98;;;;;;;14.72;86.19;101372.88;5032883;28;20048;-42
2023/09/23 10:27:31;;;;;;;22.15;15.70;;;;;;;14.75;85.95;101367.84;5032782;28;20043;-41
2023/09/23 10:29:58;;;;;;;21.90;16.88;;;;;;;14.77;85.92;101371.16;5032979;28;20021;-41
2023/09/23 10:32:25;;;;;;;24.35;17.13;;;;;;;14.89;85.54;101373.13;5048290;28;20525;-41
2023/09/23 10:34:55;;;;;;;20.88;16.00;;;;;;;14.91;85.32;101371.84;5032744;28;20091;-42
2023/09/23 10:37:29;;;;;;;22.40;16.92;;;;;;;14.92;85.27;101370.81;5032704;28;20421;-41
2023/09/23 10:39:59;;;;;;;24.75;16.63;;;;;;;14.85;85.46;101363.84;5032878;28;20033;-41
2023/09/23 10:42:25;;;;;;;25.17;17.27;;;;;;;14.89;84.95;101363.19;5032762;28;20061;-40
2023/09/23 10:44:59;;;;;;;24.67;16.60;;;;;;;14.87;84.70;101359.84;5032656;28;20052;-42
2023/09/23 10:47:25;;;;;;;29.98;18.13;;;;;;;14.88;84.28;101361.53;5032668;28;20079;-41
2023/09/23 10:49:51;;;;;;;21.67;15.88;;;;;;;14.75;84.49;101361.63;5032775;28;20104;-42
2023/09/23 10:52:18;;;;;;;24.33;16.67;;;;;;;14.69;84.46;101362.53;5032798;28;20113;-41
2023/09/23 10:54:46;;;;;;;22.92;16.92;;;;;;;14.61;84.50;101362.81;5032521;28;20018;-42
2023/09/23 10:57:13;;;;;;;25.83;18.30;;;;;;;14.59;84.31;101365.69;5032515;28;20030;-41
2023/09/23 10:59:43;;;;;;;26.98;16.67;;;;;;;14.59;84.13;101362.19;5032476;28;20049;-41
2023/09/23 11:02:11;;;;;;;19.67;15.70;;;;;;;14.49;84.13;101366.22;5032558;28;20070;-41
2023/09/23 11:04:37;;;;;;;24.90;17.45;;;;;;;14.54;84.09;101376.31;5032560;28;20048;-40
2023/09/23 11:07:05;;;;;;;26.30;16.63;;;;;;;14.53;83.93;101377.34;5032510;28;20037;-42
2023/09/23 11:09:32;;;;;;;19.20;15.02;;;;;;;14.46;83.99;101373.88;5014856;28;20025;-41
2023/09/23 11:12:12;;;;;;;22.83;15.52;;;;;;;14.39;84.08;101367.72;5032377;28;20512;-40
2023/09/23 11:14:48;;;;;;;21.73;15.95;;;;;;;14.35;83.57;101372.69;5032649;28;20025;-41